Time;durP1;ratioP1;P1;durP2;ratioP2;P2;SDS_P1;SDS_P2;PMS_P1;PMS_P2;Temp;Humidity;BMP_temperature;BMP_pressure;BME280_temperature;BME280_humidity;BME280_pressure;Samples;Min_cycle;Max_cycle;Signal;HPM_P1;HPM_P2
2023/12/01 00:02:14;;;;;;;84.23;28.87;;;;;;;;;;5023501;28;20194;-70
2023/12/01 00:04:40;;;;;;;79.90;28.50;;;;;;;;;;5030146;28;20209;-71
2023/12/01 00:07:05;;;;;;;69.53;27.30;;;;;;;;;;5043865;28;20272;-70
2023/12/01 00:09:32;;;;;;;77.80;26.80;;;;;;;;;;5028102;28;20191;-70
2023/12/01 00:11:57;;;;;;;70.20;25.83;;;;;;;;;;5033312;28;20230;-70
2023/12/01 00:14:23;;;;;;;74.37;27.47;;;;;;;;;;5034970;28;20189;-70
2023/12/01 00:16:48;;;;;;;74.13;26.40;;;;;;;;;;5031531;28;20190;-70
2023/12/01 00:19:14;;;;;;;78.03;27.37;;;;;;;;;;5026433;28;20210;-70
2023/12/01 00:21:39;;;;;;;71.10;26.63;;;;;;;;;;5022732;28;20721;-70
2023/12/01 00:24:05;;;;;;;84.30;27.60;;;;;;;;;;5038792;28;20260;-70
2023/12/01 00:26:30;;;;;;;78.83;26.20;;;;;;;;;;5035729;28;20185;-70
2023/12/01 00:28:56;;;;;;;78.80;26.47;;;;;;;;;;5036163;28;20189;-70
2023/12/01 00:31:21;;;;;;;74.47;25.03;;;;;;;;;;5034260;28;20193;-70
2023/12/01 00:33:47;;;;;;;73.43;25.80;;;;;;;;;;5034705;28;20621;-70
2023/12/01 00:36:12;;;;;;;74.43;24.80;;;;;;;;;;5034425;28;20186;-70
2023/12/01 00:38:38;;;;;;;77.83;26.70;;;;;;;;;;5027856;28;20202;-70
2023/12/01 00:41:03;;;;;;;79.33;25.37;;;;;;;;;;5027292;28;20526;-72
2023/12/01 00:43:29;;;;;;;78.93;23.73;;;;;;;;;;5028688;28;20768;-70
2023/12/01 00:45:54;;;;;;;76.20;23.37;;;;;;;;;;5038508;28;20721;-70
2023/12/01 00:48:19;;;;;;;81.03;25.57;;;;;;;;;;5034992;28;20276;-70
2023/12/01 00:50:45;;;;;;;70.10;23.77;;;;;;;;;;5035926;28;20216;-71
2023/12/01 00:53:10;;;;;;;81.27;24.57;;;;;;;;;;5031369;28;20575;-71
2023/12/01 00:55:36;;;;;;;73.40;25.27;;;;;;;;;;5029247;28;20224;-71
2023/12/01 00:58:02;;;;;;;74.20;24.57;;;;;;;;;;5036483;28;20196;-71
2023/12/01 01:00:27;;;;;;;77.57;25.87;;;;;;;;;;5029586;28;20191;-71
2023/12/01 01:02:53;;;;;;;75.33;24.43;;;;;;;;;;5030110;28;20677;-71
2023/12/01 01:05:18;;;;;;;78.87;24.10;;;;;;;;;;5028769;28;20206;-71
2023/12/01 01:07:44;;;;;;;77.63;23.67;;;;;;;;;;5031217;28;20283;-71
2023/12/01 01:10:10;;;;;;;86.30;26.57;;;;;;;;;;5034909;28;20190;-71
2023/12/01 01:12:35;;;;;;;74.70;24.87;;;;;;;;;;5025438;28;20238;-71
2023/12/01 01:15:03;;;;;;;76.90;25.63;;;;;;;;;;5034265;28;20194;-71
2023/12/01 01:17:31;;;;;;;80.07;24.97;;;;;;;;;;5042257;28;20248;-71
2023/12/01 01:19:58;;;;;;;83.17;26.33;;;;;;;;;;5029126;28;20480;-71
2023/12/01 01:22:24;;;;;;;80.60;24.97;;;;;;;;;;5028192;28;20235;-71
2023/12/01 01:24:50;;;;;;;90.93;27.57;;;;;;;;;;5034223;28;20213;-71
2023/12/01 01:27:15;;;;;;;86.83;26.57;;;;;;;;;;5030558;28;20305;-71
2023/12/01 01:29:41;;;;;;;77.90;24.60;;;;;;;;;;5033552;28;20331;-72
2023/12/01 01:32:06;;;;;;;77.50;25.60;;;;;;;;;;5030373;28;20202;-71
2023/12/01 01:34:31;;;;;;;85.30;25.53;;;;;;;;;;5025498;28;20541;-71
2023/12/01 01:36:57;;;;;;;80.83;25.27;;;;;;;;;;5035803;28;20193;-71
2023/12/01 01:39:22;;;;;;;84.20;25.17;;;;;;;;;;5040291;28;20181;-71
2023/12/01 01:41:48;;;;;;;75.87;25.33;;;;;;;;;;5021617;28;20178;-71
2023/12/01 01:44:13;;;;;;;80.53;26.73;;;;;;;;;;5025032;28;20194;-71
2023/12/01 01:46:39;;;;;;;86.23;26.30;;;;;;;;;;5027575;28;20672;-71
2023/12/01 01:49:05;;;;;;;82.87;26.07;;;;;;;;;;5037022;28;20186;-71
2023/12/01 01:51:35;;;;;;;89.50;25.70;;;;;;;;;;5033112;28;20186;-71
2023/12/01 01:54:02;;;;;;;79.87;26.90;;;;;;;;;;5030354;28;20296;-71
2023/12/01 01:56:31;;;;;;;92.40;27.03;;;;;;;;;;5026539;28;20197;-71
2023/12/01 01:58:57;;;;;;;91.73;26.73;;;;;;;;;;5034445;28;20257;-71
2023/12/01 02:01:25;;;;;;;77.80;25.23;;;;;;;;;;5034954;28;20277;-71
2023/12/01 02:03:53;;;;;;;82.40;25.10;;;;;;;;;;5035890;28;20267;-71
2023/12/01 02:06:19;;;;;;;83.37;25.63;;;;;;;;;;5038231;28;20217;-71
2023/12/01 02:08:45;;;;;;;83.53;24.37;;;;;;;;;;5040427;28;20189;-70
2023/12/01 02:11:13;;;;;;;75.33;23.10;;;;;;;;;;5041365;28;20504;-70
2023/12/01 02:13:40;;;;;;;74.00;23.30;;;;;;;;;;5037647;28;20248;-70
2023/12/01 02:16:07;;;;;;;82.30;25.23;;;;;;;;;;5038491;28;20179;-70
2023/12/01 02:18:35;;;;;;;75.00;22.80;;;;;;;;;;5033051;28;20266;-70
2023/12/01 02:21:01;;;;;;;74.60;22.13;;;;;;;;;;5032108;28;20190;-70
2023/12/01 02:23:27;;;;;;;76.90;21.67;;;;;;;;;;5037186;28;20190;-70
2023/12/01 02:25:53;;;;;;;59.40;18.80;;;;;;;;;;5033791;28;20203;-71
2023/12/01 02:28:18;;;;;;;66.80;20.70;;;;;;;;;;5034068;28;20182;-70
2023/12/01 02:30:53;;;;;;;63.30;18.97;;;;;;;;;;5023885;28;20363;-70
2023/12/01 02:33:19;;;;;;;69.30;20.33;;;;;;;;;;5038111;28;20528;-71
2023/12/01 02:35:46;;;;;;;54.93;18.10;;;;;;;;;;5046472;28;20262;-70
2023/12/01 02:38:13;;;;;;;53.57;18.47;;;;;;;;;;5026002;28;20187;-70
2023/12/01 02:40:42;;;;;;;50.80;16.90;;;;;;;;;;5035775;28;20316;-70
2023/12/01 02:43:10;;;;;;;54.30;17.97;;;;;;;;;;5035496;28;20197;-70
2023/12/01 02:45:36;;;;;;;50.07;17.37;;;;;;;;;;5035777;28;20575;-70
2023/12/01 02:48:01;;;;;;;50.73;17.87;;;;;;;;;;5027382;28;20185;-70
2023/12/01 02:50:27;;;;;;;49.63;16.27;;;;;;;;;;5029390;28;20692;-70
2023/12/01 02:52:52;;;;;;;47.27;17.43;;;;;;;;;;5027049;28;20299;-70
2023/12/01 02:55:18;;;;;;;52.70;18.07;;;;;;;;;;5035445;28;20192;-70
2023/12/01 02:57:43;;;;;;;49.30;17.40;;;;;;;;;;5039101;28;20186;-70
2023/12/01 03:00:13;;;;;;;47.30;17.53;;;;;;;;;;5031111;28;20313;-70
2023/12/01 03:02:46;;;;;;;50.40;17.43;;;;;;;;;;5031830;28;20190;-70
2023/12/01 03:05:12;;;;;;;52.70;16.23;;;;;;;;;;5037480;28;20214;-70
2023/12/01 03:07:39;;;;;;;46.10;15.33;;;;;;;;;;5037134;28;20241;-71
2023/12/01 03:10:07;;;;;;;51.37;16.30;;;;;;;;;;5040576;28;20188;-70
2023/12/01 03:12:33;;;;;;;51.00;15.97;;;;;;;;;;5036782;28;20230;-70
2023/12/01 03:14:59;;;;;;;43.00;14.77;;;;;;;;;;5042780;28;20186;-70
2023/12/01 03:17:25;;;;;;;43.73;14.73;;;;;;;;;;5024246;28;20206;-71
2023/12/01 03:19:51;;;;;;;44.03;14.93;;;;;;;;;;5030828;28;20201;-70
2023/12/01 03:22:18;;;;;;;45.37;15.20;;;;;;;;;;5039030;28;20194;-70
2023/12/01 03:24:47;;;;;;;47.07;16.40;;;;;;;;;;5034753;28;20237;-71
2023/12/01 03:27:25;;;;;;;54.37;15.87;;;;;;;;;;5029346;28;20247;-71
2023/12/01 03:29:52;;;;;;;55.33;15.27;;;;;;;;;;5024311;28;20186;-70
2023/12/01 03:32:18;;;;;;;48.03;16.73;;;;;;;;;;5030148;28;20192;-71
2023/12/01 03:34:43;;;;;;;46.50;14.87;;;;;;;;;;5033716;28;20214;-70
2023/12/01 03:37:09;;;;;;;46.63;14.97;;;;;;;;;;5029457;28;20237;-69
2023/12/01 03:39:34;;;;;;;47.77;14.97;;;;;;;;;;5023253;28;20221;-69
2023/12/01 03:42:00;;;;;;;40.77;14.20;;;;;;;;;;5021378;28;20620;-69
2023/12/01 03:44:25;;;;;;;47.13;14.97;;;;;;;;;;5029668;28;20577;-69
2023/12/01 03:46:51;;;;;;;45.23;14.80;;;;;;;;;;5034971;28;20190;-69
2023/12/01 03:49:16;;;;;;;43.70;13.23;;;;;;;;;;5029349;28;20285;-69
2023/12/01 03:51:41;;;;;;;47.77;14.93;;;;;;;;;;5025297;28;20190;-69
2023/12/01 03:54:07;;;;;;;44.40;13.60;;;;;;;;;;5035014;28;20185;-69
2023/12/01 03:56:36;;;;;;;44.17;14.13;;;;;;;;;;5019153;28;20213;-69
2023/12/01 03:59:03;;;;;;;42.43;12.97;;;;;;;;;;5017845;28;20243;-69
2023/12/01 04:01:28;;;;;;;40.37;12.23;;;;;;;;;;5023952;28;20200;-69
2023/12/01 04:03:54;;;;;;;48.53;14.50;;;;;;;;;;5031416;28;20253;-69
2023/12/01 04:06:19;;;;;;;51.40;14.80;;;;;;;;;;5037552;28;20222;-69
2023/12/01 04:08:45;;;;;;;39.93;13.97;;;;;;;;;;5034735;28;20661;-69
2023/12/01 04:11:11;;;;;;;43.40;13.00;;;;;;;;;;5034806;28;20265;-69
2023/12/01 04:13:36;;;;;;;44.60;14.13;;;;;;;;;;5031328;28;20190;-69
2023/12/01 04:16:02;;;;;;;50.77;14.67;;;;;;;;;;5033799;28;20257;-69
2023/12/01 04:18:29;;;;;;;40.33;13.10;;;;;;;;;;5029803;28;20687;-69
2023/12/01 04:20:54;;;;;;;43.33;12.93;;;;;;;;;;5030286;28;20221;-69
2023/12/01 04:23:20;;;;;;;39.23;12.30;;;;;;;;;;5034804;28;20222;-69
2023/12/01 04:25:49;;;;;;;45.13;13.53;;;;;;;;;;5028352;28;20220;-69
2023/12/01 04:28:15;;;;;;;44.57;13.30;;;;;;;;;;5016563;28;20252;-69
2023/12/01 04:30:42;;;;;;;44.50;14.23;;;;;;;;;;5035428;28;20543;-69
2023/12/01 04:33:08;;;;;;;40.30;12.33;;;;;;;;;;5039538;28;20669;-69
2023/12/01 04:35:35;;;;;;;44.67;13.50;;;;;;;;;;5036357;28;20192;-69
2023/12/01 04:38:03;;;;;;;41.27;12.67;;;;;;;;;;5028916;28;20653;-69
2023/12/01 04:40:30;;;;;;;37.50;11.60;;;;;;;;;;5030752;28;20225;-70
2023/12/01 04:42:56;;;;;;;42.50;12.33;;;;;;;;;;5019303;28;20189;-69
2023/12/01 04:45:26;;;;;;;42.90;13.67;;;;;;;;;;5031033;28;20242;-70
2023/12/01 04:47:54;;;;;;;43.53;13.80;;;;;;;;;;5028019;28;20186;-69
2023/12/01 04:50:27;;;;;;;43.03;14.50;;;;;;;;;;5031805;28;20194;-70
2023/12/01 04:52:55;;;;;;;37.67;12.63;;;;;;;;;;5023320;28;20261;-70
2023/12/01 04:55:24;;;;;;;35.63;11.87;;;;;;;;;;5028409;28;20217;-70
2023/12/01 04:57:49;;;;;;;43.87;13.20;;;;;;;;;;5021801;28;20197;-70
2023/12/01 05:00:20;;;;;;;39.40;12.13;;;;;;;;;;5028161;28;20218;-70
2023/12/01 05:02:51;;;;;;;36.03;12.13;;;;;;;;;;5030701;28;20202;-70
2023/12/01 05:05:21;;;;;;;42.23;12.27;;;;;;;;;;5029852;28;20694;-69
2023/12/01 05:07:51;;;;;;;43.33;13.83;;;;;;;;;;5033198;28;20193;-70
2023/12/01 05:10:21;;;;;;;39.97;11.70;;;;;;;;;;5027466;28;20298;-69
2023/12/01 05:12:54;;;;;;;34.20;11.53;;;;;;;;;;5029426;28;20226;-69
2023/12/01 05:15:24;;;;;;;37.50;11.90;;;;;;;;;;5027396;28;20208;-69
2023/12/01 05:17:52;;;;;;;36.83;11.70;;;;;;;;;;5025452;28;20210;-69
2023/12/01 05:20:19;;;;;;;34.57;11.70;;;;;;;;;;5036800;28;20239;-69
2023/12/01 05:22:52;;;;;;;36.80;12.30;;;;;;;;;;5029473;28;20186;-69
2023/12/01 05:25:18;;;;;;;44.03;11.73;;;;;;;;;;5040795;28;20251;-70
2023/12/01 05:27:57;;;;;;;40.70;12.40;;;;;;;;;;5033222;28;20371;-69
2023/12/01 05:30:25;;;;;;;32.97;11.93;;;;;;;;;;5029175;28;20198;-69
2023/12/01 05:32:52;;;;;;;37.27;11.83;;;;;;;;;;5028925;28;20645;-69
2023/12/01 05:35:18;;;;;;;36.13;11.73;;;;;;;;;;5032652;28;20664;-69
2023/12/01 05:37:48;;;;;;;35.33;11.00;;;;;;;;;;5031178;28;20254;-69
2023/12/01 05:40:20;;;;;;;31.63;11.20;;;;;;;;;;5034535;28;20201;-70
2023/12/01 05:42:47;;;;;;;37.80;11.30;;;;;;;;;;5035528;28;20194;-70
2023/12/01 05:45:14;;;;;;;32.33;11.63;;;;;;;;;;5030818;28;20231;-69
2023/12/01 05:47:44;;;;;;;34.90;11.33;;;;;;;;;;5029253;28;20591;-70
2023/12/01 05:50:12;;;;;;;36.53;10.83;;;;;;;;;;5035339;28;20216;-70
2023/12/01 05:52:37;;;;;;;37.30;11.63;;;;;;;;;;5041438;28;20549;-69
2023/12/01 05:55:10;;;;;;;34.73;12.00;;;;;;;;;;5036230;28;20217;-69
2023/12/01 05:57:36;;;;;;;35.83;11.43;;;;;;;;;;5027174;28;20288;-69
2023/12/01 06:00:02;;;;;;;37.53;10.90;;;;;;;;;;5034690;28;20249;-69
2023/12/01 06:02:28;;;;;;;38.33;11.13;;;;;;;;;;5050384;28;20924;-70
2023/12/01 06:04:57;;;;;;;37.90;10.97;;;;;;;;;;5033827;28;20213;-70
2023/12/01 06:07:23;;;;;;;41.37;11.70;;;;;;;;;;5030921;28;20199;-70
2023/12/01 06:09:48;;;;;;;32.30;10.67;;;;;;;;;;5028067;28;20519;-69
2023/12/01 06:12:14;;;;;;;38.47;12.20;;;;;;;;;;5030476;28;20240;-69
2023/12/01 06:14:39;;;;;;;39.43;11.90;;;;;;;;;;5028397;28;20196;-69
2023/12/01 06:17:07;;;;;;;37.70;11.37;;;;;;;;;;5027527;28;20247;-69
2023/12/01 06:19:32;;;;;;;37.90;11.17;;;;;;;;;;5026391;28;20723;-69
2023/12/01 06:21:58;;;;;;;37.53;11.13;;;;;;;;;;5027697;28;20202;-70
2023/12/01 06:24:24;;;;;;;38.50;11.90;;;;;;;;;;5026308;28;20297;-69
2023/12/01 06:26:49;;;;;;;44.47;11.83;;;;;;;;;;5029111;28;20638;-69
2023/12/01 06:29:16;;;;;;;35.17;11.23;;;;;;;;;;5026805;28;21128;-69
2023/12/01 06:31:41;;;;;;;33.03;11.57;;;;;;;;;;5023004;28;20191;-69
2023/12/01 06:34:07;;;;;;;37.10;10.90;;;;;;;;;;5020704;28;20569;-70
2023/12/01 06:36:32;;;;;;;33.87;11.13;;;;;;;;;;5027986;28;20217;-70
2023/12/01 06:38:57;;;;;;;34.47;10.77;;;;;;;;;;5026531;28;20194;-70
2023/12/01 06:41:23;;;;;;;31.70;10.83;;;;;;;;;;5026249;28;20308;-70
2023/12/01 06:43:48;;;;;;;34.03;10.93;;;;;;;;;;5024972;28;20194;-70
2023/12/01 06:46:14;;;;;;;26.90;10.17;;;;;;;;;;5030212;28;20301;-70
2023/12/01 06:48:39;;;;;;;32.37;10.93;;;;;;;;;;5033245;28;20687;-70
2023/12/01 06:51:05;;;;;;;29.73;9.87;;;;;;;;;;5029786;28;20232;-70
2023/12/01 06:53:30;;;;;;;29.77;10.37;;;;;;;;;;5024692;28;20240;-70
2023/12/01 06:55:56;;;;;;;31.80;10.43;;;;;;;;;;5026355;28;20287;-70
2023/12/01 06:58:21;;;;;;;29.23;9.80;;;;;;;;;;5026158;28;20197;-70
2023/12/01 07:00:48;;;;;;;31.90;10.97;;;;;;;;;;5030637;28;20202;-70
2023/12/01 07:03:13;;;;;;;30.97;10.67;;;;;;;;;;5026363;28;20319;-70
2023/12/01 07:05:39;;;;;;;27.40;9.80;;;;;;;;;;5028249;28;20267;-70
2023/12/01 07:08:11;;;;;;;34.00;10.83;;;;;;;;;;5027012;28;20576;-70
2023/12/01 07:10:37;;;;;;;31.03;9.83;;;;;;;;;;5023182;28;20191;-70
2023/12/01 07:13:04;;;;;;;29.67;10.20;;;;;;;;;;5024407;28;20267;-70
2023/12/01 07:15:30;;;;;;;29.03;9.87;;;;;;;;;;5025301;28;20198;-70
2023/12/01 07:17:57;;;;;;;29.43;10.73;;;;;;;;;;5030119;28;20212;-70
2023/12/01 07:20:23;;;;;;;29.93;10.00;;;;;;;;;;5014652;28;20195;-70
2023/12/01 07:22:51;;;;;;;28.80;10.17;;;;;;;;;;5019857;28;20702;-70
2023/12/01 07:25:23;;;;;;;34.80;11.20;;;;;;;;;;5026188;28;20686;-70
2023/12/01 07:27:50;;;;;;;28.17;9.10;;;;;;;;;;5013315;28;20615;-70
2023/12/01 07:30:16;;;;;;;34.33;11.00;;;;;;;;;;5023991;28;20265;-70
2023/12/01 07:32:47;;;;;;;26.60;9.47;;;;;;;;;;5025293;28;20205;-70
2023/12/01 07:35:13;;;;;;;27.57;9.60;;;;;;;;;;5025574;28;20183;-70
2023/12/01 07:37:42;;;;;;;26.97;10.07;;;;;;;;;;5025328;28;20192;-70
2023/12/01 07:40:20;;;;;;;30.37;10.10;;;;;;;;;;5026726;28;20190;-70
2023/12/01 07:42:53;;;;;;;32.80;11.13;;;;;;;;;;5026941;28;20213;-70
2023/12/01 07:45:19;;;;;;;33.30;10.67;;;;;;;;;;5019241;28;20335;-70
2023/12/01 07:47:49;;;;;;;32.17;10.43;;;;;;;;;;5024854;28;20289;-70
2023/12/01 07:50:16;;;;;;;32.20;11.17;;;;;;;;;;5028622;28;20201;-70
2023/12/01 07:52:42;;;;;;;35.00;11.73;;;;;;;;;;5022913;28;20194;-70
2023/12/01 07:55:09;;;;;;;29.00;10.23;;;;;;;;;;5029751;28;20178;-70
2023/12/01 07:57:35;;;;;;;32.50;11.30;;;;;;;;;;5014759;28;20190;-71
2023/12/01 08:00:01;;;;;;;32.90;11.33;;;;;;;;;;5025053;28;20272;-71
2023/12/01 08:02:27;;;;;;;30.27;9.87;;;;;;;;;;5015384;28;20195;-71
2023/12/01 08:04:52;;;;;;;28.07;10.13;;;;;;;;;;5023509;28;20699;-71
2023/12/01 08:07:18;;;;;;;30.60;10.00;;;;;;;;;;5029743;28;20494;-71
2023/12/01 08:09:43;;;;;;;32.97;10.27;;;;;;;;;;5027532;28;20190;-71
2023/12/01 08:12:08;;;;;;;30.43;10.87;;;;;;;;;;5029069;28;20625;-71
2023/12/01 08:14:34;;;;;;;28.57;10.37;;;;;;;;;;5030261;28;20246;-71
2023/12/01 08:16:59;;;;;;;32.67;11.27;;;;;;;;;;5036602;28;20205;-71
2023/12/01 08:19:25;;;;;;;31.67;10.73;;;;;;;;;;5017347;28;20728;-71
2023/12/01 08:21:50;;;;;;;35.23;11.77;;;;;;;;;;5027491;28;20230;-71
2023/12/01 08:24:20;;;;;;;33.27;11.23;;;;;;;;;;5025039;28;20201;-71
2023/12/01 08:26:46;;;;;;;30.67;10.67;;;;;;;;;;5013173;28;20249;-71
2023/12/01 08:29:12;;;;;;;30.43;11.90;;;;;;;;;;5025258;28;20186;-71
2023/12/01 08:31:39;;;;;;;28.97;10.63;;;;;;;;;;5023294;28;20201;-71
2023/12/01 08:34:07;;;;;;;31.37;10.80;;;;;;;;;;5014257;28;20508;-71
2023/12/01 08:36:34;;;;;;;34.27;12.50;;;;;;;;;;5024002;28;20190;-71
2023/12/01 08:39:00;;;;;;;31.07;11.93;;;;;;;;;;5029224;28;20334;-70
2023/12/01 08:41:25;;;;;;;32.77;11.67;;;;;;;;;;5027036;28;20604;-70
2023/12/01 08:43:50;;;;;;;33.33;11.00;;;;;;;;;;5027111;28;20185;-70
2023/12/01 08:46:16;;;;;;;41.63;12.20;;;;;;;;;;5029658;28;20693;-70
2023/12/01 08:48:41;;;;;;;35.17;13.23;;;;;;;;;;5016617;28;20517;-70
2023/12/01 08:51:07;;;;;;;35.57;11.83;;;;;;;;;;5047813;28;20438;-70
2023/12/01 08:53:32;;;;;;;36.20;12.83;;;;;;;;;;5028622;28;20182;-70
2023/12/01 08:55:58;;;;;;;39.30;13.47;;;;;;;;;;5017482;28;20175;-70
2023/12/01 08:58:24;;;;;;;34.10;12.73;;;;;;;;;;5002705;28;20197;-71
2023/12/01 09:00:49;;;;;;;36.90;13.03;;;;;;;;;;5013093;28;20178;-70
2023/12/01 09:03:15;;;;;;;35.57;13.23;;;;;;;;;;5020208;28;20513;-71
2023/12/01 09:05:41;;;;;;;32.23;12.47;;;;;;;;;;5013140;28;20242;-70
2023/12/01 09:08:07;;;;;;;33.30;12.30;;;;;;;;;;5041084;28;20723;-70
2023/12/01 09:10:32;;;;;;;36.60;11.87;;;;;;;;;;5020465;28;20212;-70
2023/12/01 09:12:58;;;;;;;36.00;12.80;;;;;;;;;;5019614;28;20217;-71
2023/12/01 09:15:23;;;;;;;34.90;12.43;;;;;;;;;;5020874;28;20553;-71
2023/12/01 09:17:49;;;;;;;34.77;11.77;;;;;;;;;;5018450;28;20647;-70
2023/12/01 09:20:15;;;;;;;33.20;11.83;;;;;;;;;;5016551;28;20190;-70
2023/12/01 09:22:40;;;;;;;33.43;12.43;;;;;;;;;;5021278;28;20206;-71
2023/12/01 09:25:06;;;;;;;27.80;10.43;;;;;;;;;;5019890;28;20210;-71
2023/12/01 09:27:32;;;;;;;34.90;12.63;;;;;;;;;;5015660;28;20186;-71
2023/12/01 09:29:57;;;;;;;34.93;13.40;;;;;;;;;;5026598;28;20186;-71
2023/12/01 09:32:23;;;;;;;38.23;14.70;;;;;;;;;;5021553;28;20294;-71
2023/12/01 09:34:48;;;;;;;36.83;13.63;;;;;;;;;;5007489;28;20175;-71
2023/12/01 09:37:14;;;;;;;36.17;13.10;;;;;;;;;;5009027;28;20278;-71
2023/12/01 09:39:40;;;;;;;37.13;13.97;;;;;;;;;;5026147;28;20190;-70
2023/12/01 09:42:06;;;;;;;36.27;14.13;;;;;;;;;;5023299;28;20522;-71
2023/12/01 09:44:33;;;;;;;42.60;15.33;;;;;;;;;;5015822;28;20195;-71
2023/12/01 09:47:00;;;;;;;38.47;15.77;;;;;;;;;;5023488;28;20217;-72
2023/12/01 09:49:30;;;;;;;40.83;14.43;;;;;;;;;;4998000;28;20634;-71
2023/12/01 09:51:56;;;;;;;38.30;14.50;;;;;;;;;;5010228;28;20266;-71
2023/12/01 09:54:21;;;;;;;40.63;14.77;;;;;;;;;;5010252;28;20698;-71
2023/12/01 09:56:47;;;;;;;42.10;15.57;;;;;;;;;;5027386;28;20540;-71
2023/12/01 09:59:16;;;;;;;37.90;14.13;;;;;;;;;;5029760;28;20196;-71
2023/12/01 10:01:41;;;;;;;49.07;16.93;;;;;;;;;;5018292;28;20489;-71
2023/12/01 10:04:08;;;;;;;45.23;16.03;;;;;;;;;;5022431;28;20198;-71
2023/12/01 10:06:35;;;;;;;44.33;16.73;;;;;;;;;;5015359;28;20211;-71
2023/12/01 10:09:01;;;;;;;42.60;16.37;;;;;;;;;;5014829;28;20200;-71
2023/12/01 10:11:27;;;;;;;46.17;16.77;;;;;;;;;;5025294;28;20214;-70
2023/12/01 10:13:52;;;;;;;41.13;15.63;;;;;;;;;;5013464;28;20552;-70
2023/12/01 10:16:19;;;;;;;41.00;15.53;;;;;;;;;;5025151;28;20525;-70
2023/12/01 10:19:00;;;;;;;42.87;15.83;;;;;;;;;;5030888;28;20658;-70
2023/12/01 10:21:46;;;;;;;53.70;18.87;;;;;;;;;;5026027;28;20183;-70
2023/12/01 10:24:20;;;;;;;46.07;17.00;;;;;;;;;;5016667;28;20233;-71
2023/12/01 10:26:47;;;;;;;44.43;16.87;;;;;;;;;;5015489;28;20261;-69
2023/12/01 10:29:29;;;;;;;44.37;16.30;;;;;;;;;;5045349;28;20189;-69
2023/12/01 10:31:59;;;;;;;48.50;17.17;;;;;;;;;;5029941;28;20189;-69
2023/12/01 10:34:25;;;;;;;43.77;15.67;;;;;;;;;;5013184;28;20518;-70
2023/12/01 10:36:52;;;;;;;46.67;16.13;;;;;;;;;;5016762;28;20179;-70
2023/12/01 10:39:21;;;;;;;49.40;16.23;;;;;;;;;;5012177;28;20245;-70
2023/12/01 10:41:47;;;;;;;42.17;15.20;;;;;;;;;;5020119;28;20186;-70
2023/12/01 10:44:18;;;;;;;40.13;15.20;;;;;;;;;;5027274;28;20545;-70
2023/12/01 10:46:47;;;;;;;39.93;15.33;;;;;;;;;;5018620;28;20186;-70
2023/12/01 10:49:19;;;;;;;41.57;15.23;;;;;;;;;;5031454;28;20186;-70
2023/12/01 10:51:46;;;;;;;40.17;13.40;;;;;;;;;;5017636;28;20181;-69
2023/12/01 10:54:14;;;;;;;38.20;13.80;;;;;;;;;;5031439;28;20213;-70
2023/12/01 10:57:13;;;;;;;34.63;12.17;;;;;;;;;;5012106;28;20269;-70
2023/12/01 10:59:41;;;;;;;35.10;12.60;;;;;;;;;;5018199;28;20194;-70
2023/12/01 11:02:08;;;;;;;37.33;11.57;;;;;;;;;;5037745;28;20283;-70
2023/12/01 11:04:35;;;;;;;34.33;12.33;;;;;;;;;;5010122;28;20631;-69
2023/12/01 11:07:38;;;;;;;34.03;12.63;;;;;;;;;;5022467;28;20217;-69
2023/12/01 11:10:22;;;;;;;32.83;11.37;;;;;;;;;;5010180;28;20175;-69
2023/12/01 11:13:29;;;;;;;31.17;12.17;;;;;;;;;;5024289;28;20658;-70
2023/12/01 11:15:56;;;;;;;34.53;12.63;;;;;;;;;;5004172;28;20206;-70
2023/12/01 11:18:21;;;;;;;29.80;12.20;;;;;;;;;;5029113;28;20711;-70
2023/12/01 11:20:48;;;;;;;36.37;14.03;;;;;;;;;;5030511;28;20269;-69
2023/12/01 11:23:19;;;;;;;35.50;13.63;;;;;;;;;;5030343;28;20205;-70
2023/12/01 11:25:48;;;;;;;38.47;14.73;;;;;;;;;;5028057;28;20214;-70
2023/12/01 11:28:37;;;;;;;32.40;13.03;;;;;;;;;;5025241;28;20194;-70
2023/12/01 11:31:20;;;;;;;32.93;12.70;;;;;;;;;;5025474;28;20182;-69
2023/12/01 11:33:48;;;;;;;31.27;11.77;;;;;;;;;;5031081;28;20216;-70
2023/12/01 11:36:21;;;;;;;30.17;11.57;;;;;;;;;;5025483;28;20183;-70
2023/12/01 11:39:23;;;;;;;27.07;11.47;;;;;;;;;;5022343;28;20217;-70
2023/12/01 11:41:54;;;;;;;25.80;10.50;;;;;;;;;;5023218;28;20524;-70
2023/12/01 11:44:37;;;;;;;29.30;11.97;;;;;;;;;;5030843;28;20244;-70
2023/12/01 11:47:05;;;;;;;29.27;11.27;;;;;;;;;;5031261;28;20182;-70
2023/12/01 11:49:38;;;;;;;29.00;11.67;;;;;;;;;;5027412;28;20229;-70
2023/12/01 11:52:05;;;;;;;27.37;11.80;;;;;;;;;;5028177;28;20240;-69
2023/12/01 11:54:36;;;;;;;27.87;11.53;;;;;;;;;;5016828;28;20257;-69
2023/12/01 11:57:05;;;;;;;27.20;11.37;;;;;;;;;;5023254;28;20187;-69
2023/12/01 11:59:30;;;;;;;29.33;10.77;;;;;;;;;;5028226;28;20582;-70
2023/12/01 12:01:56;;;;;;;24.60;10.13;;;;;;;;;;5029835;28;20223;-70
2023/12/01 12:04:22;;;;;;;25.60;11.00;;;;;;;;;;5030422;28;20206;-70
2023/12/01 12:06:49;;;;;;;24.23;10.67;;;;;;;;;;5030684;28;20609;-69
2023/12/01 12:09:17;;;;;;;26.87;11.70;;;;;;;;;;5029336;28;20186;-69
2023/12/01 12:11:53;;;;;;;28.03;11.37;;;;;;;;;;5027364;28;20262;-69
2023/12/01 12:14:22;;;;;;;27.07;12.17;;;;;;;;;;5029263;28;20194;-70
2023/12/01 12:16:47;;;;;;;28.03;11.43;;;;;;;;;;5028598;28;20178;-70
2023/12/01 12:19:12;;;;;;;29.93;11.40;;;;;;;;;;5028051;28;20213;-69
2023/12/01 12:21:39;;;;;;;29.50;12.20;;;;;;;;;;5017770;28;20186;-70
2023/12/01 12:24:05;;;;;;;25.10;11.37;;;;;;;;;;5030270;28;20307;-69
2023/12/01 12:26:31;;;;;;;25.70;11.70;;;;;;;;;;5037035;28;20616;-69
2023/12/01 12:29:04;;;;;;;27.70;12.33;;;;;;;;;;5042708;28;20189;-69
2023/12/01 12:31:32;;;;;;;26.73;11.90;;;;;;;;;;5028084;28;20198;-70
2023/12/01 12:33:59;;;;;;;26.37;11.87;;;;;;;;;;5028276;28;20174;-70
2023/12/01 12:36:29;;;;;;;29.13;12.70;;;;;;;;;;5017337;28;20181;-69
2023/12/01 12:38:58;;;;;;;26.37;11.80;;;;;;;;;;5028543;28;20178;-71
2023/12/01 12:41:32;;;;;;;28.83;12.17;;;;;;;;;;5013083;28;20186;-70
2023/12/01 12:43:58;;;;;;;29.40;11.77;;;;;;;;;;5012055;28;20659;-70
2023/12/01 12:46:25;;;;;;;24.67;11.40;;;;;;;;;;5028957;28;20263;-70
2023/12/01 12:49:01;;;;;;;26.37;11.43;;;;;;;;;;5029233;28;20202;-71
2023/12/01 12:51:29;;;;;;;27.73;12.37;;;;;;;;;;5028359;28;20618;-70
2023/12/01 12:53:56;;;;;;;26.77;12.37;;;;;;;;;;5028950;28;20568;-71
2023/12/01 12:56:22;;;;;;;24.83;12.30;;;;;;;;;;5028650;28;20649;-70
2023/12/01 12:58:53;;;;;;;26.70;12.73;;;;;;;;;;5028128;28;20206;-71
2023/12/01 13:01:20;;;;;;;24.77;12.33;;;;;;;;;;5027222;28;20431;-71
2023/12/01 13:03:46;;;;;;;27.27;12.87;;;;;;;;;;5026772;28;20280;-71
2023/12/01 13:06:12;;;;;;;26.40;13.03;;;;;;;;;;5035463;28;20581;-71
2023/12/01 13:08:39;;;;;;;25.97;12.80;;;;;;;;;;5027933;28;20221;-71
2023/12/01 13:11:06;;;;;;;26.63;12.33;;;;;;;;;;5028306;28;20186;-71
2023/12/01 13:13:32;;;;;;;25.77;13.03;;;;;;;;;;5028690;28;20198;-71
2023/12/01 13:15:58;;;;;;;28.33;12.40;;;;;;;;;;5029242;28;20204;-70
2023/12/01 13:18:24;;;;;;;26.50;12.67;;;;;;;;;;5028572;28;20213;-71
2023/12/01 13:20:50;;;;;;;29.57;13.23;;;;;;;;;;5029232;28;20304;-71
2023/12/01 13:23:15;;;;;;;26.80;12.50;;;;;;;;;;5028665;28;20205;-71
2023/12/01 13:25:41;;;;;;;30.47;13.53;;;;;;;;;;5027595;28;20275;-71
2023/12/01 13:28:07;;;;;;;29.43;13.37;;;;;;;;;;5028740;28;20197;-71
2023/12/01 13:30:33;;;;;;;29.63;14.10;;;;;;;;;;5031763;28;20178;-71
2023/12/01 13:32:59;;;;;;;27.87;13.53;;;;;;;;;;5032285;28;20197;-71
2023/12/01 13:35:25;;;;;;;32.00;14.37;;;;;;;;;;5027547;28;20186;-71
2023/12/01 13:37:51;;;;;;;30.93;12.90;;;;;;;;;;5025285;28;20545;-72
2023/12/01 13:40:16;;;;;;;28.17;13.37;;;;;;;;;;5029759;28;20224;-73
2023/12/01 13:42:42;;;;;;;31.07;12.80;;;;;;;;;;5035763;28;20243;-71
2023/12/01 13:45:08;;;;;;;30.83;14.07;;;;;;;;;;5023573;28;20217;-72
2023/12/01 13:47:34;;;;;;;32.33;13.90;;;;;;;;;;5005906;28;20191;-73
2023/12/01 13:50:01;;;;;;;30.33;14.10;;;;;;;;;;5017927;28;20182;-72
2023/12/01 13:52:27;;;;;;;29.57;13.80;;;;;;;;;;5022613;28;20571;-73
2023/12/01 13:54:55;;;;;;;26.50;12.77;;;;;;;;;;5029790;28;20242;-72
2023/12/01 13:57:21;;;;;;;29.13;13.60;;;;;;;;;;5016029;28;20641;-71
2023/12/01 13:59:46;;;;;;;29.00;13.30;;;;;;;;;;5018255;28;20222;-71
2023/12/01 14:02:12;;;;;;;27.87;13.23;;;;;;;;;;5020047;28;20190;-71
2023/12/01 14:04:38;;;;;;;29.63;13.67;;;;;;;;;;5020127;28;20190;-71
2023/12/01 14:07:07;;;;;;;32.23;14.17;;;;;;;;;;5026390;28;20237;-71
2023/12/01 14:09:34;;;;;;;33.23;15.20;;;;;;;;;;5022824;28;20194;-71
2023/12/01 14:12:00;;;;;;;37.03;16.43;;;;;;;;;;5019582;28;20234;-71
2023/12/01 14:14:25;;;;;;;34.97;15.83;;;;;;;;;;5022528;28;20194;-71
2023/12/01 14:16:51;;;;;;;31.90;15.00;;;;;;;;;;5021722;28;20190;-71
2023/12/01 14:19:16;;;;;;;33.37;16.43;;;;;;;;;;5027287;28;20244;-71